sensor_id;sensor_type;location;lat;lon;timestamp;pressure;altitude;pressure_sealevel;temperature;humidity
70916;BME280;58557;50.982;-3.222;2023-05-09T00:01:58;100751.08;;;19.18;52.93
70916;BME280;58557;50.982;-3.222;2023-05-09T00:04:24;100746.81;;;18.60;54.37
70916;BME280;58557;50.982;-3.222;2023-05-09T00:06:49;100743.50;;;19.47;53.48
70916;BME280;58557;50.982;-3.222;2023-05-09T00:09:15;100744.63;;;19.48;52.29
70916;BME280;58557;50.982;-3.222;2023-05-09T00:11:41;100744.72;;;19.72;53.20
70916;BME280;58557;50.982;-3.222;2023-05-09T00:14:06;100741.89;;;19.25;53.59
70916;BME280;58557;50.982;-3.222;2023-05-09T00:16:32;100740.68;;;18.23;54.99
70916;BME280;58557;50.982;-3.222;2023-05-09T00:18:57;100731.26;;;19.70;53.61
70916;BME280;58557;50.982;-3.222;2023-05-09T00:21:23;100731.36;;;20.38;50.63
70916;BME280;58557;50.982;-3.222;2023-05-09T00:23:49;100734.18;;;19.47;51.73
70916;BME280;58557;50.982;-3.222;2023-05-09T00:26:15;100732.13;;;19.25;53.44
70916;BME280;58557;50.982;-3.222;2023-05-09T00:28:40;100731.73;;;18.94;53.65
70916;BME280;58557;50.982;-3.222;2023-05-09T00:31:06;100734.10;;;19.88;51.19
70916;BME280;58557;50.982;-3.222;2023-05-09T00:33:31;100731.90;;;19.52;52.61
70916;BME280;58557;50.982;-3.222;2023-05-09T00:35:57;100735.16;;;19.32;51.76
70916;BME280;58557;50.982;-3.222;2023-05-09T00:38:22;100734.93;;;19.43;53.24
70916;BME280;58557;50.982;-3.222;2023-05-09T00:40:48;100730.06;;;19.74;51.89
70916;BME280;58557;50.982;-3.222;2023-05-09T00:43:13;100727.88;;;19.75;51.54
70916;BME280;58557;50.982;-3.222;2023-05-09T00:45:38;100728.19;;;20.13;50.93
70916;BME280;58557;50.982;-3.222;2023-05-09T00:48:04;100729.60;;;20.20;51.62
70916;BME280;58557;50.982;-3.222;2023-05-09T00:50:30;100729.05;;;20.67;50.54
70916;BME280;58557;50.982;-3.222;2023-05-09T00:52:55;100731.19;;;19.95;50.40
70916;BME280;58557;50.982;-3.222;2023-05-09T00:55:21;100731.82;;;20.06;50.40
70916;BME280;58557;50.982;-3.222;2023-05-09T00:57:46;100726.59;;;19.87;52.37
70916;BME280;58557;50.982;-3.222;2023-05-09T01:00:13;100721.90;;;20.01;50.53
70916;BME280;58557;50.982;-3.222;2023-05-09T01:02:38;100720.43;;;20.26;50.19
70916;BME280;58557;50.982;-3.222;2023-05-09T01:05:04;100718.27;;;20.60;50.12
70916;BME280;58557;50.982;-3.222;2023-05-09T01:07:34;100712.24;;;20.25;49.42
70916;BME280;58557;50.982;-3.222;2023-05-09T01:09:59;100710.18;;;18.88;52.53
70916;BME280;58557;50.982;-3.222;2023-05-09T01:12:28;100704.22;;;17.26;58.70
70916;BME280;58557;50.982;-3.222;2023-05-09T01:14:51;100701.35;;;18.14;56.87
70916;BME280;58557;50.982;-3.222;2023-05-09T01:17:15;100694.68;;;19.03;54.14
70916;BME280;58557;50.982;-3.222;2023-05-09T01:19:49;100694.03;;;19.15;54.41
70916;BME280;58557;50.982;-3.222;2023-05-09T01:22:06;100696.78;;;18.75;54.10
70916;BME280;58557;50.982;-3.222;2023-05-09T01:24:35;100691.68;;;19.30;53.50
70916;BME280;58557;50.982;-3.222;2023-05-09T01:27:05;100687.60;;;19.37;52.86
70916;BME280;58557;50.982;-3.222;2023-05-09T01:29:29;100684.41;;;19.05;54.13
70916;BME280;58557;50.982;-3.222;2023-05-09T01:31:44;100684.38;;;19.09;53.53
70916;BME280;58557;50.982;-3.222;2023-05-09T01:34:10;100679.04;;;19.64;51.53
70916;BME280;58557;50.982;-3.222;2023-05-09T01:36:36;100673.05;;;19.18;52.52
70916;BME280;58557;50.982;-3.222;2023-05-09T01:39:01;100673.63;;;19.07;52.64
70916;BME280;58557;50.982;-3.222;2023-05-09T01:41:30;100672.98;;;19.23;51.68
70916;BME280;58557;50.982;-3.222;2023-05-09T01:43:53;100671.60;;;19.51;52.00
70916;BME280;58557;50.982;-3.222;2023-05-09T01:46:18;100670.59;;;19.26;52.08
70916;BME280;58557;50.982;-3.222;2023-05-09T01:48:44;100671.06;;;19.37;51.86
70916;BME280;58557;50.982;-3.222;2023-05-09T01:51:11;100666.67;;;19.15;51.36
70916;BME280;58557;50.982;-3.222;2023-05-09T01:53:35;100668.38;;;19.82;51.26
70916;BME280;58557;50.982;-3.222;2023-05-09T01:56:01;100663.66;;;19.64;52.00
70916;BME280;58557;50.982;-3.222;2023-05-09T01:58:27;100661.25;;;18.99;52.41
70916;BME280;58557;50.982;-3.222;2023-05-09T02:00:52;100661.50;;;18.57;53.98
70916;BME280;58557;50.982;-3.222;2023-05-09T02:03:17;100659.76;;;19.14;53.13
70916;BME280;58557;50.982;-3.222;2023-05-09T02:05:44;100660.05;;;18.09;56.00
70916;BME280;58557;50.982;-3.222;2023-05-09T02:08:09;100657.76;;;18.02;55.76
70916;BME280;58557;50.982;-3.222;2023-05-09T02:10:34;100656.17;;;18.11;56.40
70916;BME280;58557;50.982;-3.222;2023-05-09T02:13:00;100651.21;;;18.81;54.68
70916;BME280;58557;50.982;-3.222;2023-05-09T02:15:26;100654.12;;;19.40;51.98
70916;BME280;58557;50.982;-3.222;2023-05-09T02:17:51;100653.68;;;18.35;55.71
70916;BME280;58557;50.982;-3.222;2023-05-09T02:20:17;100647.59;;;18.69;54.74
70916;BME280;58557;50.982;-3.222;2023-05-09T02:22:43;100643.39;;;19.68;52.09
70916;BME280;58557;50.982;-3.222;2023-05-09T02:25:11;100644.66;;;19.07;52.70
70916;BME280;58557;50.982;-3.222;2023-05-09T02:27:34;100645.28;;;19.20;53.37
70916;BME280;58557;50.982;-3.222;2023-05-09T02:30:03;100638.74;;;18.98;52.81
70916;BME280;58557;50.982;-3.222;2023-05-09T02:32:29;100631.83;;;18.98;53.23
70916;BME280;58557;50.982;-3.222;2023-05-09T02:34:52;100639.33;;;18.61;53.54
70916;BME280;58557;50.982;-3.222;2023-05-09T02:37:18;100640.16;;;18.52;53.45
70916;BME280;58557;50.982;-3.222;2023-05-09T02:39:43;100641.47;;;18.91;53.47
70916;BME280;58557;50.982;-3.222;2023-05-09T02:42:09;100649.01;;;18.05;55.07
70916;BME280;58557;50.982;-3.222;2023-05-09T02:44:33;100645.61;;;18.52;52.94
70916;BME280;58557;50.982;-3.222;2023-05-09T02:46:59;100649.73;;;18.02;54.15
70916;BME280;58557;50.982;-3.222;2023-05-09T02:49:25;100651.39;;;18.55;54.60
70916;BME280;58557;50.982;-3.222;2023-05-09T02:51:50;100649.61;;;17.86;55.64
70916;BME280;58557;50.982;-3.222;2023-05-09T02:54:16;100654.48;;;18.01;55.36
70916;BME280;58557;50.982;-3.222;2023-05-09T02:56:41;100650.13;;;18.28;53.76
70916;BME280;58557;50.982;-3.222;2023-05-09T02:59:07;100646.71;;;18.45;55.85
70916;BME280;58557;50.982;-3.222;2023-05-09T03:01:33;100640.01;;;17.94;56.27
70916;BME280;58557;50.982;-3.222;2023-05-09T03:03:58;100636.45;;;17.59;57.23
70916;BME280;58557;50.982;-3.222;2023-05-09T03:06:24;100632.78;;;17.09;57.82
70916;BME280;58557;50.982;-3.222;2023-05-09T03:08:49;100629.89;;;17.59;58.98
70916;BME280;58557;50.982;-3.222;2023-05-09T03:11:15;100634.24;;;17.26;59.38
70916;BME280;58557;50.982;-3.222;2023-05-09T03:13:41;100639.07;;;17.50;58.45
70916;BME280;58557;50.982;-3.222;2023-05-09T03:16:07;100634.13;;;17.60;59.43
70916;BME280;58557;50.982;-3.222;2023-05-09T03:18:33;100633.45;;;16.94;60.08
70916;BME280;58557;50.982;-3.222;2023-05-09T03:20:58;100637.17;;;16.29;63.82
70916;BME280;58557;50.982;-3.222;2023-05-09T03:23:24;100629.58;;;16.96;62.60
70916;BME280;58557;50.982;-3.222;2023-05-09T03:25:49;100632.13;;;17.01;62.21
70916;BME280;58557;50.982;-3.222;2023-05-09T03:28:15;100629.78;;;17.14;60.95
70916;BME280;58557;50.982;-3.222;2023-05-09T03:30:41;100635.81;;;16.76;61.82
70916;BME280;58557;50.982;-3.222;2023-05-09T03:33:06;100634.09;;;16.67;60.90
70916;BME280;58557;50.982;-3.222;2023-05-09T03:35:32;100641.44;;;15.98;61.98
70916;BME280;58557;50.982;-3.222;2023-05-09T03:37:58;100644.92;;;16.47;62.90
70916;BME280;58557;50.982;-3.222;2023-05-09T03:40:24;100636.97;;;17.14;59.62
70916;BME280;58557;50.982;-3.222;2023-05-09T03:42:49;100637.54;;;15.96;62.57
70916;BME280;58557;50.982;-3.222;2023-05-09T03:45:14;100635.05;;;16.08;65.04
70916;BME280;58557;50.982;-3.222;2023-05-09T03:47:40;100630.97;;;14.68;69.36
70916;BME280;58557;50.982;-3.222;2023-05-09T03:50:06;100628.81;;;16.43;64.12
70916;BME280;58557;50.982;-3.222;2023-05-09T03:52:31;100628.32;;;15.47;65.43
70916;BME280;58557;50.982;-3.222;2023-05-09T03:54:57;100625.58;;;16.76;62.75
70916;BME280;58557;50.982;-3.222;2023-05-09T03:57:22;100622.05;;;16.05;63.76
70916;BME280;58557;50.982;-3.222;2023-05-09T03:59:48;100608.21;;;17.00;60.43
70916;BME280;58557;50.982;-3.222;2023-05-09T04:02:14;100605.29;;;15.76;63.12
70916;BME280;58557;50.982;-3.222;2023-05-09T04:04:39;100601.53;;;16.51;63.35
70916;BME280;58557;50.982;-3.222;2023-05-09T04:07:05;100591.15;;;16.57;61.91
70916;BME280;58557;50.982;-3.222;2023-05-09T04:09:30;100586.46;;;16.10;61.74
70916;BME280;58557;50.982;-3.222;2023-05-09T04:11:55;100582.33;;;16.80;60.53
70916;BME280;58557;50.982;-3.222;2023-05-09T04:14:21;100585.74;;;17.02;58.20
70916;BME280;58557;50.982;-3.222;2023-05-09T04:16:46;100581.31;;;16.53;62.22
70916;BME280;58557;50.982;-3.222;2023-05-09T04:19:12;100577.89;;;17.36;59.46
70916;BME280;58557;50.982;-3.222;2023-05-09T04:21:37;100578.45;;;17.03;58.64
70916;BME280;58557;50.982;-3.222;2023-05-09T04:24:03;100582.34;;;17.92;57.13
70916;BME280;58557;50.982;-3.222;2023-05-09T04:26:28;100589.22;;;16.21;61.37
70916;BME280;58557;50.982;-3.222;2023-05-09T04:28:54;100591.16;;;16.87;60.00
70916;BME280;58557;50.982;-3.222;2023-05-09T04:31:20;100591.43;;;17.99;57.30
70916;BME280;58557;50.982;-3.222;2023-05-09T04:33:46;100588.18;;;18.31;55.39
70916;BME280;58557;50.982;-3.222;2023-05-09T04:36:11;100585.43;;;17.52;57.36
70916;BME280;58557;50.982;-3.222;2023-05-09T04:38:36;100582.81;;;17.59;56.71
70916;BME280;58557;50.982;-3.222;2023-05-09T04:41:02;100580.06;;;15.91;61.38
70916;BME280;58557;50.982;-3.222;2023-05-09T04:43:27;100578.48;;;16.61;59.44
70916;BME280;58557;50.982;-3.222;2023-05-09T04:45:53;100576.41;;;16.36;60.69
70916;BME280;58557;50.982;-3.222;2023-05-09T04:48:18;100574.54;;;16.67;60.50
70916;BME280;58557;50.982;-3.222;2023-05-09T04:50:44;100570.56;;;16.35;61.14
70916;BME280;58557;50.982;-3.222;2023-05-09T04:53:09;100570.57;;;17.58;56.25
70916;BME280;58557;50.982;-3.222;2023-05-09T04:55:35;100571.90;;;18.10;55.79
70916;BME280;58557;50.982;-3.222;2023-05-09T04:58:00;100568.29;;;17.98;55.39
70916;BME280;58557;50.982;-3.222;2023-05-09T05:00:25;100577.45;;;18.55;53.35
70916;BME280;58557;50.982;-3.222;2023-05-09T05:02:51;100584.00;;;18.11;55.60
70916;BME280;58557;50.982;-3.222;2023-05-09T05:05:16;100584.41;;;17.16;57.62
70916;BME280;58557;50.982;-3.222;2023-05-09T05:07:42;100588.44;;;18.15;54.48
70916;BME280;58557;50.982;-3.222;2023-05-09T05:10:08;100587.62;;;18.43;53.40
70916;BME280;58557;50.982;-3.222;2023-05-09T05:12:33;100593.59;;;18.05;55.34
70916;BME280;58557;50.982;-3.222;2023-05-09T05:14:58;100592.26;;;18.36;54.80
70916;BME280;58557;50.982;-3.222;2023-05-09T05:17:24;100591.85;;;17.74;55.35
70916;BME280;58557;50.982;-3.222;2023-05-09T05:19:50;100593.44;;;18.30;54.69
70916;BME280;58557;50.982;-3.222;2023-05-09T05:22:15;100594.30;;;17.83;55.11
70916;BME280;58557;50.982;-3.222;2023-05-09T05:24:41;100592.82;;;18.09;55.19
70916;BME280;58557;50.982;-3.222;2023-05-09T05:27:06;100593.36;;;17.48;56.14
70916;BME280;58557;50.982;-3.222;2023-05-09T05:29:32;100598.55;;;17.98;53.95
70916;BME280;58557;50.982;-3.222;2023-05-09T05:31:57;100595.93;;;18.34;52.91
70916;BME280;58557;50.982;-3.222;2023-05-09T05:34:23;100592.00;;;17.63;55.22
70916;BME280;58557;50.982;-3.222;2023-05-09T05:36:49;100592.83;;;17.57;56.15
70916;BME280;58557;50.982;-3.222;2023-05-09T05:39:14;100592.56;;;17.37;56.42
70916;BME280;58557;50.982;-3.222;2023-05-09T05:41:39;100588.97;;;17.64;56.22
70916;BME280;58557;50.982;-3.222;2023-05-09T05:44:05;100586.76;;;17.26;58.71
70916;BME280;58557;50.982;-3.222;2023-05-09T05:46:30;100582.12;;;16.82;59.18
70916;BME280;58557;50.982;-3.222;2023-05-09T05:48:56;100581.92;;;17.85;57.80
70916;BME280;58557;50.982;-3.222;2023-05-09T05:51:22;100579.99;;;17.67;57.88
70916;BME280;58557;50.982;-3.222;2023-05-09T05:53:48;100578.69;;;16.93;59.26
70916;BME280;58557;50.982;-3.222;2023-05-09T05:56:13;100577.19;;;16.72;59.74
70916;BME280;58557;50.982;-3.222;2023-05-09T05:58:39;100578.79;;;17.22;59.36
70916;BME280;58557;50.982;-3.222;2023-05-09T06:01:05;100574.10;;;16.81;59.65
70916;BME280;58557;50.982;-3.222;2023-05-09T06:03:30;100575.85;;;15.69;61.73
70916;BME280;58557;50.982;-3.222;2023-05-09T06:05:56;100569.83;;;16.15;62.48
70916;BME280;58557;50.982;-3.222;2023-05-09T06:08:22;100568.75;;;17.41;58.95
70916;BME280;58557;50.982;-3.222;2023-05-09T06:10:53;100562.48;;;16.99;59.56
70916;BME280;58557;50.982;-3.222;2023-05-09T06:13:13;100562.15;;;17.69;58.26
70916;BME280;58557;50.982;-3.222;2023-05-09T06:15:39;100561.73;;;17.71;58.09
70916;BME280;58557;50.982;-3.222;2023-05-09T06:18:05;100562.16;;;17.11;61.73
70916;BME280;58557;50.982;-3.222;2023-05-09T06:20:30;100561.61;;;17.57;58.75
70916;BME280;58557;50.982;-3.222;2023-05-09T06:22:56;100563.43;;;16.93;61.01
70916;BME280;58557;50.982;-3.222;2023-05-09T06:25:21;100562.51;;;17.19;61.18
70916;BME280;58557;50.982;-3.222;2023-05-09T06:27:48;100562.39;;;16.78;61.97
70916;BME280;58557;50.982;-3.222;2023-05-09T06:30:13;100568.49;;;17.69;59.52
70916;BME280;58557;50.982;-3.222;2023-05-09T06:32:38;100569.76;;;17.51;58.55
70916;BME280;58557;50.982;-3.222;2023-05-09T06:35:03;100568.80;;;15.92;63.76
70916;BME280;58557;50.982;-3.222;2023-05-09T06:37:32;100569.75;;;15.33;65.73
70916;BME280;58557;50.982;-3.222;2023-05-09T06:39:54;100568.56;;;14.78;68.48
70916;BME280;58557;50.982;-3.222;2023-05-09T06:42:20;100562.14;;;15.72;67.09
70916;BME280;58557;50.982;-3.222;2023-05-09T06:44:45;100558.95;;;16.59;63.25
70916;BME280;58557;50.982;-3.222;2023-05-09T06:47:11;100555.66;;;16.29;66.42
70916;BME280;58557;50.982;-3.222;2023-05-09T06:49:37;100559.54;;;16.36;66.64
70916;BME280;58557;50.982;-3.222;2023-05-09T06:52:02;100563.92;;;15.41;69.70
70916;BME280;58557;50.982;-3.222;2023-05-09T06:54:28;100552.73;;;16.28;68.22
70916;BME280;58557;50.982;-3.222;2023-05-09T06:56:54;100555.81;;;15.60;69.85
70916;BME280;58557;50.982;-3.222;2023-05-09T06:59:19;100548.70;;;17.72;63.49
70916;BME280;58557;50.982;-3.222;2023-05-09T07:01:44;100547.78;;;17.62;62.70
70916;BME280;58557;50.982;-3.222;2023-05-09T07:04:10;100549.74;;;15.76;68.42
70916;BME280;58557;50.982;-3.222;2023-05-09T07:06:35;100546.47;;;15.74;69.75
70916;BME280;58557;50.982;-3.222;2023-05-09T07:09:01;100546.88;;;15.13;71.01
70916;BME280;58557;50.982;-3.222;2023-05-09T07:11:26;100541.13;;;16.72;66.63
70916;BME280;58557;50.982;-3.222;2023-05-09T07:13:52;100539.50;;;17.19;67.48
70916;BME280;58557;50.982;-3.222;2023-05-09T07:16:18;100535.66;;;17.81;63.82
70916;BME280;58557;50.982;-3.222;2023-05-09T07:18:43;100532.59;;;18.53;63.77
70916;BME280;58557;50.982;-3.222;2023-05-09T07:21:08;100531.89;;;18.44;61.09
70916;BME280;58557;50.982;-3.222;2023-05-09T07:23:33;100532.37;;;17.71;62.04
70916;BME280;58557;50.982;-3.222;2023-05-09T07:25:59;100531.57;;;18.44;61.45
70916;BME280;58557;50.982;-3.222;2023-05-09T07:28:24;100528.22;;;18.15;58.75
70916;BME280;58557;50.982;-3.222;2023-05-09T07:30:50;100526.18;;;18.88;56.99
70916;BME280;58557;50.982;-3.222;2023-05-09T07:33:16;100525.69;;;18.88;57.93
70916;BME280;58557;50.982;-3.222;2023-05-09T07:35:41;100526.39;;;19.01;57.27
70916;BME280;58557;50.982;-3.222;2023-05-09T07:38:07;100530.74;;;19.66;55.50
70916;BME280;58557;50.982;-3.222;2023-05-09T07:40:32;100529.34;;;19.66;55.50
70916;BME280;58557;50.982;-3.222;2023-05-09T07:42:58;100530.62;;;19.39;55.47
70916;BME280;58557;50.982;-3.222;2023-05-09T07:45:24;100527.60;;;18.64;57.26
70916;BME280;58557;50.982;-3.222;2023-05-09T07:47:50;100526.62;;;19.02;54.62
70916;BME280;58557;50.982;-3.222;2023-05-09T07:50:15;100521.11;;;17.66;58.24
70916;BME280;58557;50.982;-3.222;2023-05-09T07:52:41;100521.25;;;17.02;61.68
70916;BME280;58557;50.982;-3.222;2023-05-09T07:55:07;100519.48;;;17.63;60.99
70916;BME280;58557;50.982;-3.222;2023-05-09T07:57:32;100523.51;;;16.85;64.72
70916;BME280;58557;50.982;-3.222;2023-05-09T07:59:58;100522.90;;;16.52;64.06
70916;BME280;58557;50.982;-3.222;2023-05-09T08:02:23;100522.92;;;18.18;60.13
70916;BME280;58557;50.982;-3.222;2023-05-09T08:04:49;100518.31;;;17.33;61.99
70916;BME280;58557;50.982;-3.222;2023-05-09T08:07:15;100516.78;;;17.96;61.65
70916;BME280;58557;50.982;-3.222;2023-05-09T08:09:41;100516.94;;;18.31;59.49
70916;BME280;58557;50.982;-3.222;2023-05-09T08:12:07;100519.37;;;18.21;63.31
70916;BME280;58557;50.982;-3.222;2023-05-09T08:14:32;100516.47;;;17.94;60.73
70916;BME280;58557;50.982;-3.222;2023-05-09T08:16:57;100511.66;;;18.42;59.72
70916;BME280;58557;50.982;-3.222;2023-05-09T08:19:23;100510.06;;;18.92;58.84
70916;BME280;58557;50.982;-3.222;2023-05-09T08:21:49;100507.25;;;18.47;61.31
70916;BME280;58557;50.982;-3.222;2023-05-09T08:24:14;100503.19;;;19.00;57.90
70916;BME280;58557;50.982;-3.222;2023-05-09T08:26:40;100502.22;;;18.72;61.22
70916;BME280;58557;50.982;-3.222;2023-05-09T08:29:06;100501.85;;;20.36;54.97
70916;BME280;58557;50.982;-3.222;2023-05-09T08:31:31;100505.75;;;19.62;57.54
70916;BME280;58557;50.982;-3.222;2023-05-09T08:33:57;100501.83;;;19.36;55.70
70916;BME280;58557;50.982;-3.222;2023-05-09T08:36:22;100504.47;;;19.31;59.64
70916;BME280;58557;50.982;-3.222;2023-05-09T08:38:48;100502.56;;;20.13;56.51
70916;BME280;58557;50.982;-3.222;2023-05-09T08:41:13;100498.70;;;20.22;54.59
70916;BME280;58557;50.982;-3.222;2023-05-09T08:43:39;100499.01;;;19.83;54.87
70916;BME280;58557;50.982;-3.222;2023-05-09T08:46:06;100492.63;;;17.40;62.96
70916;BME280;58557;50.982;-3.222;2023-05-09T08:48:31;100493.72;;;18.90;56.65
70916;BME280;58557;50.982;-3.222;2023-05-09T08:50:57;100493.75;;;19.30;56.55
70916;BME280;58557;50.982;-3.222;2023-05-09T08:53:22;100488.48;;;19.47;54.75
70916;BME280;58557;50.982;-3.222;2023-05-09T08:55:47;100488.30;;;18.65;55.93
70916;BME280;58557;50.982;-3.222;2023-05-09T08:58:13;100491.23;;;19.12;54.34
70916;BME280;58557;50.982;-3.222;2023-05-09T09:00:38;100488.21;;;19.04;57.12
70916;BME280;58557;50.982;-3.222;2023-05-09T09:03:05;100485.62;;;18.65;57.63
70916;BME280;58557;50.982;-3.222;2023-05-09T09:05:30;100482.95;;;17.84;60.54
70916;BME280;58557;50.982;-3.222;2023-05-09T09:07:57;100484.64;;;17.63;59.12
70916;BME280;58557;50.982;-3.222;2023-05-09T09:10:21;100484.21;;;18.15;59.28
70916;BME280;58557;50.982;-3.222;2023-05-09T09:12:47;100482.66;;;18.52;57.34
70916;BME280;58557;50.982;-3.222;2023-05-09T09:15:15;100483.85;;;17.36;59.47
70916;BME280;58557;50.982;-3.222;2023-05-09T09:17:39;100480.59;;;17.46;59.24
70916;BME280;58557;50.982;-3.222;2023-05-09T09:20:05;100483.92;;;18.19;59.83
70916;BME280;58557;50.982;-3.222;2023-05-09T09:22:32;100480.50;;;18.01;58.59
70916;BME280;58557;50.982;-3.222;2023-05-09T09:24:54;100481.85;;;17.67;57.43
70916;BME280;58557;50.982;-3.222;2023-05-09T09:27:20;100481.49;;;19.21;54.30
70916;BME280;58557;50.982;-3.222;2023-05-09T09:29:46;100477.49;;;17.51;59.02
70916;BME280;58557;50.982;-3.222;2023-05-09T09:32:11;100475.18;;;17.70;58.96
70916;BME280;58557;50.982;-3.222;2023-05-09T09:34:37;100471.01;;;19.20;55.93
70916;BME280;58557;50.982;-3.222;2023-05-09T09:37:05;100464.01;;;18.29;56.23
70916;BME280;58557;50.982;-3.222;2023-05-09T09:39:28;100461.88;;;18.14;57.85
70916;BME280;58557;50.982;-3.222;2023-05-09T09:41:54;100459.89;;;17.99;58.65
70916;BME280;58557;50.982;-3.222;2023-05-09T09:44:24;100458.26;;;18.71;55.84
70916;BME280;58557;50.982;-3.222;2023-05-09T09:46:46;100454.32;;;19.03;54.49
70916;BME280;58557;50.982;-3.222;2023-05-09T09:49:11;100449.94;;;18.42;57.09
70916;BME280;58557;50.982;-3.222;2023-05-09T09:51:36;100447.74;;;18.04;55.47
70916;BME280;58557;50.982;-3.222;2023-05-09T09:54:02;100442.88;;;16.23;59.77
70916;BME280;58557;50.982;-3.222;2023-05-09T09:56:38;100436.97;;;17.64;60.16
70916;BME280;58557;50.982;-3.222;2023-05-09T10:01:18;100439.95;;;18.60;57.85
70916;BME280;58557;50.982;-3.222;2023-05-09T10:03:44;100444.26;;;19.92;56.79
70916;BME280;58557;50.982;-3.222;2023-05-09T10:06:09;100444.94;;;20.19;52.01
70916;BME280;58557;50.982;-3.222;2023-05-09T10:08:34;100450.08;;;19.66;54.28
70916;BME280;58557;50.982;-3.222;2023-05-09T10:11:00;100452.56;;;19.46;52.89
70916;BME280;58557;50.982;-3.222;2023-05-09T10:13:28;100449.15;;;20.53;51.05
70916;BME280;58557;50.982;-3.222;2023-05-09T10:15:52;100450.99;;;20.82;49.37
70916;BME280;58557;50.982;-3.222;2023-05-09T10:18:18;100450.96;;;20.96;48.16
70916;BME280;58557;50.982;-3.222;2023-05-09T10:20:43;100451.42;;;20.75;50.29
70916;BME280;58557;50.982;-3.222;2023-05-09T10:23:11;100452.66;;;20.52;49.35
70916;BME280;58557;50.982;-3.222;2023-05-09T10:25:38;100445.44;;;20.26;50.82
70916;BME280;58557;50.982;-3.222;2023-05-09T10:28:00;100450.84;;;19.48;54.08
70916;BME280;58557;50.982;-3.222;2023-05-09T10:30:30;100448.80;;;18.10;55.88
70916;BME280;58557;50.982;-3.222;2023-05-09T10:32:52;100447.39;;;16.51;61.25
70916;BME280;58557;50.982;-3.222;2023-05-09T10:35:18;100439.42;;;16.93;59.33
70916;BME280;58557;50.982;-3.222;2023-05-09T10:37:42;100439.58;;;17.25;59.67
70916;BME280;58557;50.982;-3.222;2023-05-09T10:40:08;100436.96;;;17.36;61.17
70916;BME280;58557;50.982;-3.222;2023-05-09T10:42:41;100436.26;;;17.23;63.09
70916;BME280;58557;50.982;-3.222;2023-05-09T10:44:59;100433.53;;;18.52;57.88
70916;BME280;58557;50.982;-3.222;2023-05-09T10:47:25;100429.70;;;18.43;56.04
70916;BME280;58557;50.982;-3.222;2023-05-09T10:49:50;100432.94;;;19.81;54.01
70916;BME280;58557;50.982;-3.222;2023-05-09T10:52:16;100431.67;;;18.01;55.58
70916;BME280;58557;50.982;-3.222;2023-05-09T10:54:41;100431.69;;;18.83;55.41
70916;BME280;58557;50.982;-3.222;2023-05-09T10:59:35;100432.31;;;19.46;57.19
70916;BME280;58557;50.982;-3.222;2023-05-09T11:01:58;100429.15;;;19.99;53.31
70916;BME280;58557;50.982;-3.222;2023-05-09T11:04:23;100424.88;;;19.57;54.21
70916;BME280;58557;50.982;-3.222;2023-05-09T11:06:51;100416.97;;;20.38;51.87
70916;BME280;58557;50.982;-3.222;2023-05-09T11:09:25;100417.01;;;21.63;49.58
70916;BME280;58557;50.982;-3.222;2023-05-09T11:11:50;100414.42;;;21.57;46.60
70916;BME280;58557;50.982;-3.222;2023-05-09T11:14:07;100411.46;;;19.14;51.42
70916;BME280;58557;50.982;-3.222;2023-05-09T11:18:57;100401.71;;;19.93;52.04
70916;BME280;58557;50.982;-3.222;2023-05-09T11:21:22;100402.41;;;19.34;54.22
70916;BME280;58557;50.982;-3.222;2023-05-09T11:23:53;100399.47;;;21.77;49.31
70916;BME280;58557;50.982;-3.222;2023-05-09T11:26:14;100393.55;;;22.22;47.44
70916;BME280;58557;50.982;-3.222;2023-05-09T11:28:39;100391.61;;;21.90;47.74
70916;BME280;58557;50.982;-3.222;2023-05-09T11:31:09;100395.31;;;21.40;47.58
70916;BME280;58557;50.982;-3.222;2023-05-09T11:33:30;100384.85;;;21.56;47.05
70916;BME280;58557;50.982;-3.222;2023-05-09T11:36:14;100378.32;;;21.26;48.42
70916;BME280;58557;50.982;-3.222;2023-05-09T11:38:21;100372.96;;;21.74;45.40
70916;BME280;58557;50.982;-3.222;2023-05-09T11:40:47;100371.58;;;21.33;45.68
70916;BME280;58557;50.982;-3.222;2023-05-09T11:43:12;100364.57;;;22.85;44.87
70916;BME280;58557;50.982;-3.222;2023-05-09T11:45:38;100361.61;;;20.42;48.89
70916;BME280;58557;50.982;-3.222;2023-05-09T11:48:14;100355.28;;;21.73;48.65
70916;BME280;58557;50.982;-3.222;2023-05-09T11:50:29;100353.20;;;23.59;43.40
70916;BME280;58557;50.982;-3.222;2023-05-09T11:52:55;100348.97;;;24.32;40.92
70916;BME280;58557;50.982;-3.222;2023-05-09T11:55:21;100342.81;;;23.71;42.06
70916;BME280;58557;50.982;-3.222;2023-05-09T11:57:47;100332.31;;;24.55;39.24
70916;BME280;58557;50.982;-3.222;2023-05-09T12:00:13;100327.71;;;24.38;38.23
70916;BME280;58557;50.982;-3.222;2023-05-09T12:02:37;100335.67;;;23.62;40.51
70916;BME280;58557;50.982;-3.222;2023-05-09T12:05:07;100338.40;;;23.97;38.51
70916;BME280;58557;50.982;-3.222;2023-05-09T12:07:28;100343.87;;;23.61;38.93
70916;BME280;58557;50.982;-3.222;2023-05-09T12:09:53;100337.81;;;23.27;40.09
70916;BME280;58557;50.982;-3.222;2023-05-09T12:12:19;100335.53;;;22.75;40.06
70916;BME280;58557;50.982;-3.222;2023-05-09T12:14:44;100332.84;;;20.95;44.72
70916;BME280;58557;50.982;-3.222;2023-05-09T12:17:10;100330.58;;;21.11;45.38
70916;BME280;58557;50.982;-3.222;2023-05-09T12:19:35;100330.86;;;21.16;44.83
70916;BME280;58557;50.982;-3.222;2023-05-09T12:22:02;100329.59;;;21.49;43.80
70916;BME280;58557;50.982;-3.222;2023-05-09T12:24:36;100330.05;;;21.59;45.24
70916;BME280;58557;50.982;-3.222;2023-05-09T12:26:53;100324.43;;;20.13;45.34
70916;BME280;58557;50.982;-3.222;2023-05-09T12:29:18;100333.95;;;17.88;52.82
70916;BME280;58557;50.982;-3.222;2023-05-09T12:31:44;100327.30;;;20.06;48.74
70916;BME280;58557;50.982;-3.222;2023-05-09T12:34:09;100326.51;;;21.28;46.78
70916;BME280;58557;50.982;-3.222;2023-05-09T12:36:35;100326.28;;;20.22;48.53
70916;BME280;58557;50.982;-3.222;2023-05-09T12:39:00;100322.27;;;20.76;47.62